HomeShort term forecast

Short term forecast

Graphical weather forecast for the next 48 hours for Montreal:

Short term forecast

This weather forecast is automatically refreshed every 3 hours.

Hourly Experimental Forecast for the next 48 hours

Overall summary: Clear throughout the day.

 Date & Hour   Temp   Feel   Baro   Hum   Speed & Bearing   Wind Gust   Precip.%   Precip.   Visibility   Cloud cover   Conditions 
 12/08/2020 - 12:00  26.4°C  27.5°C  1016.7 hPa  63%  16.0 km/h   23.0 km/h  0%  --  16.1km  30%  Clear 
 12/08/2020 - 13:00  27.4°C  28.2°C  1016.5 hPa  55%  17.3 km/h   24.2 km/h  0%  --  16.1km  53%  Partly Cloudy 
 12/08/2020 - 14:00  28.5°C  28.9°C  1016.3 hPa  49%  18.2 km/h   25.5 km/h  0%  --  16.1km  42%  Partly Cloudy 
 12/08/2020 - 15:00  29.3°C  29.3°C  1016.5 hPa  43%  18.3 km/h   25.5 km/h  0%  --  16.1km  11%  Clear 
 12/08/2020 - 16:00  29.6°C  29.6°C  1016.3 hPa  39%  18.1 km/h   25.9 km/h  0%  --  16.1km  4%  Clear 
 12/08/2020 - 17:00  29.4°C  29.4°C  1016.9 hPa  39%  17.0 km/h   25.8 km/h  1%  0.01 mm/h  16.1km  0%  Clear 
 12/08/2020 - 18:00  28.6°C  28.6°C  1016.7 hPa  43%  15.1 km/h   24.2 km/h  0%  --  16.1km  0%  Clear 
 12/08/2020 - 19:00  27.3°C  27.7°C  1016.7 hPa  49%  11.9 km/h   21.9 km/h  0%  --  16.1km  1%  Clear 
 12/08/2020 - 20:00  26.0°C  26.2°C  1017.8 hPa  57%  9.0 km/h   18.3 km/h  0%  --  16.1km  1%  Clear 
 12/08/2020 - 21:00  24.7°C  24.9°C  1018.3 hPa  64%  8.0 km/h   16.6 km/h  1%  0.02 mm/h  16.1km  0%  Clear 
 12/08/2020 - 22:00  23.5°C  23.7°C  1018.7 hPa  70%  7.5 km/h   14.2 km/h  1%  0.01 mm/h  16.1km  0%  Clear 
 12/08/2020 - 23:00  22.5°C  22.8°C  1019.1 hPa  75%  6.9 km/h   10.7 km/h  1%  0.01 mm/h  16.1km  0%  Clear 
 13/08/2020 - 00:00  21.7°C  22.0°C  1018.9 hPa  80%  6.3 km/h   9.0 km/h  0%  --  16.1km  0%  Clear 
 13/08/2020 - 01:00  20.7°C  21.1°C  1018.5 hPa  87%  7.4 km/h   11.7 km/h  0%  --  16.1km  0%  Clear 
 13/08/2020 - 02:00  19.9°C  20.4°C  1018.6 hPa  93%  7.3 km/h   11.3 km/h  0%  --  16.1km  0%  Clear 
 13/08/2020 - 03:00  19.1°C  19.5°C  1018.7 hPa  96%  7.2 km/h   10.7 km/h  0%  --  16.1km  0%  Clear 
 13/08/2020 - 04:00  18.2°C  18.6°C  1019.5 hPa  98%  7.0 km/h   10.2 km/h  0%  --  16.1km  0%  Clear 
 13/08/2020 - 05:00  17.8°C  18.2°C  1019.8 hPa  99%  6.7 km/h   9.5 km/h  0%  --  16.1km  0%  Clear 
 13/08/2020 - 06:00  18.0°C  18.4°C  1020.2 hPa  96%  6.1 km/h   8.4 km/h  0%  --  16.1km  1%  Clear 
 13/08/2020 - 07:00  18.8°C  19.1°C  1020.6 hPa  93%  5.4 km/h   7.3 km/h  0%  --  16.1km  1%  Clear 
 13/08/2020 - 08:00  20.2°C  20.4°C  1021.0 hPa  85%  4.8 km/h   6.7 km/h  1%  0.01 mm/h  16.1km  2%  Clear 
 13/08/2020 - 09:00  22.3°C  22.6°C  1021.0 hPa  74%  4.6 km/h   7.3 km/h  0%  --  16.1km  2%  Clear 
 13/08/2020 - 10:00  24.6°C  24.8°C  1020.9 hPa  64%  4.5 km/h   8.5 km/h  0%  --  16.1km  3%  Clear 
 13/08/2020 - 11:00  26.4°C  26.6°C  1021.0 hPa  55%  4.9 km/h   9.5 km/h  0%  --  16.1km  4%  Clear 
 13/08/2020 - 12:00  27.5°C  27.8°C  1020.7 hPa  49%  6.2 km/h   10.3 km/h  0%  --  16.1km  6%  Clear 
 13/08/2020 - 13:00  28.3°C  28.3°C  1020.6 hPa  44%  7.9 km/h   10.8 km/h  1%  0.01 mm/h  16.1km  8%  Clear 
 13/08/2020 - 14:00  28.8°C  28.8°C  1020.4 hPa  41%  9.2 km/h   11.1 km/h  1%  0.01 mm/h  16.1km  11%  Clear 
 13/08/2020 - 15:00  29.0°C  29.0°C  1020.2 hPa  41%  9.5 km/h   10.8 km/h  1%  0.01 mm/h  16.1km  23%  Clear 
 13/08/2020 - 16:00  28.8°C  28.8°C  1019.4 hPa  41%  9.3 km/h   10.2 km/h  0%  --  16.1km  39%  Partly Cloudy 
 13/08/2020 - 17:00  28.2°C  28.2°C  1019.4 hPa  44%  9.1 km/h   10.1 km/h  0%  --  16.1km  50%  Partly Cloudy 
 13/08/2020 - 18:00  27.1°C  27.5°C  1019.4 hPa  48%  9.0 km/h   10.9 km/h  0%  --  16.1km  51%  Partly Cloudy 
 13/08/2020 - 19:00  26.1°C  26.2°C  1019.9 hPa  54%  8.9 km/h   12.2 km/h  0%  --  16.1km  48%  Partly Cloudy 
 13/08/2020 - 20:00  24.9°C  25.0°C  1020.3 hPa  60%  8.7 km/h   13.1 km/h  1%  0.01 mm/h  16.1km  42%  Partly Cloudy 
 13/08/2020 - 21:00  24.2°C  24.3°C  1020.3 hPa  65%  8.2 km/h   12.9 km/h  0%  --  16.1km  33%  Partly Cloudy 
 13/08/2020 - 22:00  23.3°C  23.4°C  1020.7 hPa  70%  7.6 km/h   12.3 km/h  0%  --  16.1km  22%  Clear 
 13/08/2020 - 23:00  22.4°C  22.6°C  1020.8 hPa  73%  7.5 km/h   13.2 km/h  0%  --  16.1km  15%  Clear 
 14/08/2020 - 00:00  21.6°C  21.8°C  1021.2 hPa  76%  8.5 km/h   17.5 km/h  0%  --  16.1km  13%  Clear 
 14/08/2020 - 01:00  20.8°C  21.0°C  1021.6 hPa  78%  9.9 km/h   23.2 km/h  1%  0.01 mm/h  16.1km  15%  Clear 
 14/08/2020 - 02:00  20.0°C  20.1°C  1021.8 hPa  80%  11.2 km/h   27.2 km/h  1%  0.02 mm/h  16.1km  16%  Clear 
 14/08/2020 - 03:00  19.0°C  19.1°C  1021.8 hPa  81%  11.9 km/h   27.7 km/h  1%  0.01 mm/h  16.1km  13%  Clear 
 14/08/2020 - 04:00  18.0°C  18.0°C  1021.5 hPa  81%  12.3 km/h   26.4 km/h  0%  --  16.1km  9%  Clear 
 14/08/2020 - 05:00  17.3°C  17.3°C  1021.5 hPa  80%  12.7 km/h   25.3 km/h  0%  --  16.1km  6%  Clear 
 14/08/2020 - 06:00  17.2°C  17.2°C  1021.7 hPa  79%  13.0 km/h   25.4 km/h  0%  --  16.1km  4%  Clear 
 14/08/2020 - 07:00  17.6°C  17.6°C  1022.2 hPa  77%  13.1 km/h   25.7 km/h  0%  --  16.1km  3%  Clear 
 14/08/2020 - 08:00  18.5°C  18.5°C  1022.5 hPa  74%  13.1 km/h   25.3 km/h  0%  --  16.1km  3%  Clear 
 14/08/2020 - 09:00  20.1°C  20.1°C  1022.6 hPa  67%  12.9 km/h   23.1 km/h  0%  --  16.1km  5%  Clear 
 14/08/2020 - 10:00  21.9°C  21.9°C  1022.8 hPa  60%  12.5 km/h   20.1 km/h  1%  0.01 mm/h  16.1km  9%  Clear 
 14/08/2020 - 11:00  23.3°C  23.3°C  1022.8 hPa  54%  12.2 km/h   17.6 km/h  1%  0.01 mm/h  16.1km  11%  Clear 

 

Past weather and reports

Past weatherFind in this section the past weather conditions, weather archive, graphics, reports and statistics.

Current conditions

Current weather condition for MontrealAll you need to know about the current weather conditions for Montreal. Weather data is updated every 10 minutes.

Weather forecast

Current Montreal weatherSince 2004, celinium.com website has provided accurate weather forecast for Montreal's island.